createdAt,value
2019-04-30T18:51:45.010Z,97876.70
2019-04-30T18:52:09.080Z,97875.55
2019-04-30T18:52:32.736Z,97873.83
2019-04-30T18:52:58.813Z,97876.70
2019-04-30T18:53:24.119Z,97878.45
2019-04-30T18:53:49.355Z,97887.02
2019-04-30T18:54:12.690Z,97884.83
2019-04-30T18:54:36.132Z,97882.37
2019-04-30T18:54:59.579Z,97881.05
2019-04-30T18:55:23.003Z,97884.45
2019-04-30T18:55:46.466Z,97886.98
2019-04-30T18:56:14.422Z,97879.28
2019-04-30T18:56:35.198Z,97886.61
2019-04-30T18:56:58.977Z,97890.84
2019-04-30T18:57:22.520Z,97891.78
2019-04-30T18:57:56.019Z,97881.83
2019-04-30T18:58:11.092Z,97890.22
2019-04-30T18:58:39.835Z,97884.41
2019-04-30T18:58:59.739Z,97882.75
2019-04-30T18:59:23.178Z,97883.56
2019-04-30T18:59:46.612Z,97885.25
2019-04-30T19:00:10.134Z,97881.92
2019-04-30T19:00:39.572Z,97891.59
2019-04-30T19:01:03.655Z,97888.48
2019-04-30T19:01:27.084Z,97888.45
2019-04-30T19:01:50.527Z,97894.20
2019-04-30T19:02:13.959Z,97891.30
2019-04-30T19:02:38.334Z,97897.05
2019-04-30T19:03:02.533Z,97892.14
2019-04-30T19:03:26.041Z,97896.22
2019-04-30T19:03:49.477Z,97892.73
2019-04-30T19:04:12.915Z,97891.76
2019-04-30T19:04:38.881Z,97896.61
2019-04-30T19:05:01.625Z,97893.93
2019-04-30T19:05:29.385Z,97892.12
2019-04-30T19:05:54.672Z,97888.31
2019-04-30T19:06:23.924Z,97892.89
2019-04-30T19:06:44.966Z,97891.34
2019-04-30T19:07:12.765Z,97896.41
2019-04-30T19:07:46.303Z,97894.54
2019-04-30T19:08:16.841Z,97887.08
2019-04-30T19:08:58.709Z,97895.55
2019-04-30T19:09:24.612Z,97896.47
2019-04-30T19:09:49.706Z,97895.91
2019-04-30T19:10:14.794Z,97896.47
2019-04-30T19:10:54.835Z,97894.76
2019-04-30T19:11:25.748Z,97897.86
2019-04-30T19:11:50.813Z,97900.64
2019-04-30T19:12:24.769Z,97897.55
2019-04-30T19:12:56.336Z,97897.55
2019-04-30T19:13:30.481Z,97900.01
2019-04-30T19:14:11.597Z,97910.63
2019-04-30T19:14:36.677Z,97899.48
2019-04-30T19:15:10.534Z,97905.06
2019-04-30T19:16:18.057Z,97904.50
2019-04-30T19:16:30.859Z,97901.95
2019-04-30T19:17:12.081Z,97909.47
2019-04-30T19:17:37.155Z,97910.86
2019-04-30T19:18:02.227Z,97909.16
2019-04-30T19:18:30.246Z,97909.47
2019-04-30T19:19:13.340Z,97909.47
2019-04-30T19:19:44.196Z,97916.43
2019-04-30T19:20:18.893Z,97918.10
2019-04-30T19:20:46.892Z,97915.64
2019-04-30T19:21:11.208Z,97914.56
2019-04-30T19:21:35.114Z,97909.52
2019-04-30T19:21:58.704Z,97916.55
2019-04-30T19:22:22.168Z,97915.45
2019-04-30T19:22:45.609Z,97914.38
2019-04-30T19:23:10.184Z,97913.27
2019-04-30T19:23:33.759Z,97916.12
2019-04-30T19:23:58.674Z,97915.02
2019-04-30T19:24:22.206Z,97910.05
2019-04-30T19:24:55.581Z,97916.77
2019-04-30T19:25:10.879Z,97918.80
2019-04-30T19:25:34.311Z,97919.39
2019-04-30T19:25:59.588Z,97916.92
2019-04-30T19:26:22.987Z,97919.99
2019-04-30T19:26:46.427Z,97920.35
2019-04-30T19:27:09.868Z,97915.94
2019-04-30T19:27:33.314Z,97912.36
2019-04-30T19:28:09.419Z,97914.03
2019-04-30T19:28:21.892Z,97916.90
2019-04-30T19:28:45.337Z,97915.23
2019-04-30T19:29:08.790Z,97914.16
2019-04-30T19:29:32.230Z,97915.59
2019-04-30T19:29:55.668Z,97915.34
2019-04-30T19:30:19.443Z,97917.06
2019-04-30T19:30:55.087Z,97917.66
2019-04-30T19:31:09.168Z,97919.69
2019-04-30T19:31:33.163Z,97919.14
2019-04-30T19:31:56.611Z,97915.27
2019-04-30T19:32:20.055Z,97920.05
2019-04-30T19:32:43.500Z,97921.48
2019-04-30T19:33:08.691Z,97915.42
2019-04-30T19:33:32.084Z,97917.42
2019-04-30T19:33:55.546Z,97918.77
2019-04-30T19:34:18.984Z,97919.61
2019-04-30T19:34:42.419Z,97916.86
2019-04-30T19:35:09.048Z,97923.55
2019-04-30T19:35:32.266Z,97916.82
2019-04-30T19:35:55.719Z,97920.20
2019-04-30T19:36:20.991Z,97917.17
2019-04-30T19:36:44.866Z,97921.40
2019-04-30T19:37:08.730Z,97925.94
2019-04-30T19:37:32.409Z,97920.36
2019-04-30T19:37:55.847Z,97922.23
2019-04-30T19:38:19.357Z,97920.56
2019-04-30T19:38:42.794Z,97920.24
2019-04-30T19:39:08.967Z,97920.24
2019-04-30T19:39:32.605Z,97926.93
2019-04-30T19:39:56.117Z,97921.11
2019-04-30T19:40:19.576Z,97922.80
2019-04-30T19:40:43.014Z,97927.33
2019-04-30T19:41:06.456Z,97917.85
2019-04-30T19:41:30.803Z,97921.27
2019-04-30T19:41:58.393Z,97924.34
2019-04-30T19:42:21.919Z,97926.29
2019-04-30T19:42:48.311Z,97923.74
2019-04-30T19:43:10.500Z,97925.14
2019-04-30T19:43:33.938Z,97925.17
2019-04-30T19:43:57.478Z,97925.49
2019-04-30T19:44:21.095Z,97925.49
2019-04-30T19:44:56.015Z,97928.84
2019-04-30T19:45:12.421Z,97925.73
2019-04-30T19:45:35.852Z,97931.30
2019-04-30T19:45:59.313Z,97927.44
2019-04-30T19:46:22.726Z,97932.70
2019-04-30T19:46:46.164Z,97925.73
2019-04-30T19:47:09.604Z,97931.62
2019-04-30T19:47:33.039Z,97928.28
2019-04-30T19:47:58.575Z,97929.12
2019-04-30T19:48:21.622Z,97928.03
2019-04-30T19:48:45.058Z,97933.61
2019-04-30T19:49:09.803Z,97929.71
2019-04-30T19:49:33.612Z,97934.73
2019-04-30T19:49:59.399Z,97927.77
2019-04-30T19:50:22.189Z,97924.09
2019-04-30T19:50:45.620Z,97934.48
2019-04-30T19:51:09.072Z,97935.88
2019-04-30T19:51:32.506Z,97932.81
2019-04-30T19:52:06.197Z,97932.81
2019-04-30T19:52:21.796Z,97935.60
2019-04-30T19:52:45.322Z,97934.48
2019-04-30T19:53:08.988Z,97934.48
2019-04-30T19:53:32.423Z,97931.42
2019-04-30T19:53:55.861Z,97933.69
2019-04-30T19:54:19.369Z,97936.80
2019-04-30T19:54:42.806Z,97935.68
2019-04-30T19:55:06.267Z,97934.84
2019-04-30T19:55:29.688Z,97936.20
2019-04-30T19:55:53.125Z,97937.03
2019-04-30T19:56:18.288Z,97935.95
2019-04-30T19:56:41.713Z,97930.63
2019-04-30T19:57:05.152Z,97935.08
2019-04-30T19:57:28.718Z,97934.01
2019-04-30T19:57:52.394Z,97930.66
2019-04-30T19:58:26.229Z,97928.44
2019-04-30T19:58:54.423Z,97931.46
2019-04-30T19:59:08.642Z,97938.43
2019-04-30T19:59:31.556Z,97929.23
2019-04-30T19:59:55.001Z,97937.88
2019-04-30T20:00:18.439Z,97938.98
2019-04-30T20:00:41.881Z,97932.86
2019-04-30T20:01:05.317Z,97938.47
2019-04-30T20:01:28.873Z,97939.34
2019-04-30T20:01:52.312Z,97936.80
2019-04-30T20:02:15.873Z,97937.39
2019-04-30T20:02:39.327Z,97939.86
2019-04-30T20:03:02.764Z,97937.39
2019-04-30T20:03:26.367Z,97937.39
2019-04-30T20:03:49.833Z,97940.80
2019-04-30T20:04:13.271Z,97939.41
2019-04-30T20:04:39.793Z,97942.80
2019-04-30T20:05:01.873Z,97943.91
2019-04-30T20:05:25.306Z,97942.80
2019-04-30T20:05:48.745Z,97937.78
2019-04-30T20:06:12.186Z,97940.25
2019-04-30T20:06:35.627Z,97940.80
2019-04-30T20:06:59.211Z,97939.73
2019-04-30T20:07:22.577Z,97942.20
2019-04-30T20:07:46.022Z,97940.80
2019-04-30T20:08:11.130Z,97944.64
2019-04-30T20:08:34.783Z,97939.41
2019-04-30T20:08:59.053Z,97944.11
2019-04-30T20:09:23.436Z,97940.80
2019-04-30T20:09:58.421Z,97950.87
2019-04-30T20:10:12.074Z,97945.51
2019-04-30T20:10:35.575Z,97942.20
2019-04-30T20:10:59.380Z,97945.90
2019-04-30T20:11:22.974Z,97945.90
2019-04-30T20:11:46.482Z,97947.81
2019-04-30T20:12:10.633Z,97943.91
2019-04-30T20:12:34.227Z,97948.09
2019-04-30T20:12:58.803Z,97945.30
2019-04-30T20:13:31.291Z,97942.52
2019-04-30T20:13:48.940Z,97945.30
2019-04-30T20:14:12.637Z,97948.09
2019-04-30T20:14:36.142Z,97948.38
2019-04-30T20:15:00.541Z,97946.14
2019-04-30T20:15:24.880Z,97931.34
2019-04-30T20:15:49.405Z,97945.83
2019-04-30T20:16:13.039Z,97941.85
2019-04-30T20:16:40.055Z,97942.97
2019-04-30T20:17:03.235Z,97949.69
2019-04-30T20:17:26.848Z,97949.17
2019-04-30T20:17:50.353Z,97948.82
2019-04-30T20:18:13.804Z,97945.83
2019-04-30T20:18:38.986Z,97949.77
2019-04-30T20:19:02.377Z,97941.41
2019-04-30T20:19:25.813Z,97952.87
2019-04-30T20:19:49.248Z,97950.91
2019-04-30T20:20:12.689Z,97950.08
2019-04-30T20:20:36.714Z,97957.05
2019-04-30T20:21:01.817Z,97945.90
2019-04-30T20:21:30.166Z,97955.34
2019-04-30T20:21:53.623Z,97956.25
2019-04-30T20:22:15.744Z,97953.15
2019-04-30T20:22:39.305Z,97956.53
2019-04-30T20:23:02.749Z,97953.75
2019-04-30T20:23:26.187Z,97949.32
2019-04-30T20:23:49.619Z,97955.25
2019-04-30T20:24:13.057Z,97945.49
2019-04-30T20:24:36.543Z,97945.25
2019-04-30T20:24:59.983Z,97948.63
2019-04-30T20:25:23.421Z,97953.93
2019-04-30T20:25:46.861Z,97949.47
2019-04-30T20:26:10.295Z,97953.89
2019-04-30T20:26:33.743Z,97951.66
2019-04-30T20:27:04.925Z,97950.23
2019-04-30T20:27:22.326Z,97952.95
2019-04-30T20:27:45.769Z,97955.84
2019-04-30T20:28:12.023Z,97951.14
2019-04-30T20:28:39.994Z,97953.66
2019-04-30T20:28:59.464Z,97950.55
2019-04-30T20:29:22.903Z,97957.52
2019-04-30T20:29:46.343Z,97953.89
2019-04-30T20:30:09.863Z,97953.05
2019-04-30T20:30:33.306Z,97953.05
2019-04-30T20:30:56.752Z,97958.31
2019-04-30T20:31:20.199Z,97952.46
2019-04-30T20:31:43.651Z,97953.86
2019-04-30T20:32:08.656Z,97951.07
2019-04-30T20:32:36.169Z,97960.27
2019-04-30T20:32:59.453Z,97952.50
2019-04-30T20:33:22.582Z,97958.63
2019-04-30T20:33:46.027Z,97949.95
2019-04-30T20:34:09.466Z,97950.52
2019-04-30T20:34:32.912Z,97954.14
2019-04-30T20:34:56.349Z,97955.53
2019-04-30T20:35:19.791Z,97957.24
2019-04-30T20:35:43.230Z,97957.80
2019-04-30T20:36:09.222Z,97950.83
2019-04-30T20:36:32.561Z,97951.91
2019-04-30T20:36:55.997Z,97960.03
2019-04-30T20:37:19.686Z,97958.63
2019-04-30T20:38:00.887Z,97951.34
2019-04-30T20:38:34.785Z,97958.04
2019-04-30T20:39:02.574Z,97952.15
2019-04-30T20:39:30.632Z,97953.02
2019-04-30T20:39:55.719Z,97955.80
2019-04-30T20:40:19.631Z,97951.27
2019-04-30T20:40:57.095Z,97948.17
2019-04-30T20:41:10.990Z,97954.86
2019-04-30T20:41:34.432Z,97948.38
2019-04-30T20:41:59.502Z,97947.22
2019-04-30T20:42:22.987Z,97949.48
2019-04-30T20:42:46.426Z,97952.80
2019-04-30T20:43:11.552Z,97953.66
2019-04-30T20:43:34.988Z,97945.30
2019-04-30T20:43:58.427Z,97946.98
2019-04-30T20:44:21.872Z,97946.42
2019-04-30T20:44:45.317Z,97949.77
2019-04-30T20:45:09.133Z,97950.87
2019-04-30T20:45:32.782Z,97946.38
2019-04-30T20:45:56.222Z,97951.40
2019-04-30T20:46:31.464Z,97944.19
2019-04-30T20:46:44.793Z,97947.30
2019-04-30T20:47:08.967Z,97954.86
2019-04-30T20:47:32.672Z,97949.56
2019-04-30T20:47:56.105Z,97947.89
2019-04-30T20:48:20.017Z,97948.17
2019-04-30T20:48:43.447Z,97955.69
2019-04-30T20:49:06.875Z,97948.17
2019-04-30T20:49:30.968Z,97954.86
2019-04-30T20:49:56.090Z,97953.47
2019-04-30T20:50:20.398Z,97949.28
2019-04-30T20:50:44.554Z,97954.86
2019-04-30T20:51:10.260Z,97960.12
2019-04-30T20:51:33.718Z,97957.05
2019-04-30T20:51:58.855Z,97957.89
2019-04-30T20:52:22.360Z,97952.00
2019-04-30T20:52:46.069Z,97952.55
2019-04-30T20:53:09.541Z,97957.89
2019-04-30T20:53:32.995Z,97959.04
2019-04-30T20:53:56.432Z,97958.48
2019-04-30T20:54:19.873Z,97955.94
2019-04-30T20:54:43.349Z,97956.25
2019-04-30T20:55:06.857Z,97956.25
2019-04-30T20:55:32.235Z,97959.08
2019-04-30T20:55:55.671Z,97959.91
2019-04-30T20:56:20.611Z,97959.64
2019-04-30T20:56:44.052Z,97960.16
2019-04-30T20:57:08.742Z,97962.11
2019-04-30T20:57:32.282Z,97957.92
2019-04-30T20:57:55.730Z,97960.95
2019-04-30T20:58:19.169Z,97955.94
2019-04-30T20:58:55.048Z,97956.17
2019-04-30T20:59:10.477Z,97962.86
2019-04-30T20:59:32.907Z,97965.02
2019-04-30T20:59:56.339Z,97962.16
2019-04-30T21:00:19.860Z,97961.92
2019-04-30T21:00:43.941Z,97966.42
2019-04-30T21:01:09.433Z,97961.37
2019-04-30T21:01:32.592Z,97956.91
2019-04-30T21:01:56.033Z,97965.27
2019-04-30T21:02:20.523Z,97962.16
2019-04-30T21:02:48.617Z,97962.72
2019-04-30T21:03:12.235Z,97966.62
2019-04-30T21:03:35.672Z,97957.11
2019-04-30T21:03:59.963Z,97959.89
2019-04-30T21:04:23.706Z,97964.91
2019-04-30T21:04:47.349Z,97962.44
2019-04-30T21:05:10.783Z,97961.88
2019-04-30T21:05:34.357Z,97962.12
2019-04-30T21:06:00.336Z,97962.67
2019-04-30T21:06:25.197Z,97964.07
2019-04-30T21:07:09.443Z,97958.30
2019-04-30T21:07:32.949Z,97969.41
2019-04-30T21:07:56.388Z,97960.73
2019-04-30T21:08:19.840Z,97962.44
2019-04-30T21:08:43.272Z,97963.52
2019-04-30T21:09:06.708Z,97964.07
2019-04-30T21:18:48.977Z,97959.88
2019-04-30T21:19:12.655Z,97963.95
2019-04-30T21:19:36.307Z,97967.29
2019-04-30T21:20:01.008Z,97964.67
2019-04-30T21:20:24.795Z,97961.48
2019-04-30T21:20:49.655Z,97967.73
2019-04-30T21:21:13.560Z,97960.89
2019-04-30T21:21:38.695Z,97959.66
2019-04-30T21:23:15.278Z,97957.98
2019-04-30T21:23:41.189Z,97964.17
2019-04-30T21:24:07.108Z,97967.38
2019-04-30T21:24:33.034Z,97962.28
2019-04-30T21:25:00.606Z,97967.13
2019-04-30T21:25:28.971Z,97962.83
2019-04-30T21:25:54.582Z,97960.78
2019-04-30T21:26:20.491Z,97966.83
2019-04-30T21:26:46.409Z,97965.63
2019-04-30T21:27:12.324Z,97961.08
2019-04-30T21:27:40.136Z,97970.77
2019-04-30T21:28:05.846Z,97968.78
2019-04-30T21:28:31.754Z,97964.55
2019-04-30T21:29:10.394Z,97968.13
2019-04-30T21:29:27.071Z,97960.25
2019-04-30T21:29:54.804Z,97964.92
2019-04-30T21:30:20.720Z,97957.88
2019-04-30T21:30:46.627Z,97966.23
2019-04-30T21:31:30.370Z,97963.40
2019-04-30T21:31:57.986Z,97963.34
2019-04-30T21:32:25.621Z,97965.48
2019-04-30T21:33:04.798Z,97969.94
2019-04-30T21:33:41.349Z,97972.63
2019-04-30T21:34:25.113Z,97963.39
2019-04-30T21:35:09.230Z,97970.81
2019-04-30T21:35:36.774Z,97969.92
2019-04-30T21:36:04.405Z,97969.84
2019-04-30T21:36:30.358Z,97971.17
2019-04-30T21:36:56.267Z,97971.92
2019-04-30T21:37:22.173Z,97969.09
2019-04-30T21:37:48.089Z,97969.61
2019-04-30T21:38:14.009Z,97969.00
2019-04-30T21:38:39.913Z,97973.41
2019-04-30T21:39:08.833Z,97974.80
2019-04-30T21:39:34.369Z,97973.96
2019-04-30T21:40:00.284Z,97970.58
2019-04-30T21:40:26.186Z,97974.74
2019-04-30T21:40:52.101Z,97971.97
2019-04-30T21:41:19.552Z,97969.41
2019-04-30T21:41:45.881Z,97967.73
2019-04-30T21:42:11.796Z,97969.64
2019-04-30T21:42:37.716Z,97969.12
2019-04-30T21:43:03.613Z,97970.52
2019-04-30T21:43:29.602Z,97972.43
2019-04-30T21:43:55.513Z,97977.98
2019-04-30T21:44:21.435Z,97973.82
2019-04-30T21:44:47.336Z,97977.15
2019-04-30T21:45:13.264Z,97969.91
2019-04-30T21:45:39.819Z,97975.16
2019-04-30T21:53:01.425Z,97960.48
2019-04-30T21:53:29.350Z,97965.66
2019-04-30T21:53:54.983Z,97963.01
2019-04-30T21:54:20.908Z,97968.48
2019-04-30T21:54:48.613Z,97961.62
2019-04-30T21:55:14.640Z,97960.12
2019-04-30T21:55:40.561Z,97955.47
2019-04-30T21:56:06.486Z,97955.52
2019-04-30T21:56:32.407Z,97958.91
2019-04-30T21:56:58.340Z,97954.17
2019-04-30T21:57:24.249Z,97952.23
2019-04-30T21:57:50.165Z,97953.95
2019-04-30T21:58:16.069Z,97951.66
2019-04-30T21:58:42.461Z,97953.88
